createdAt,value
2019-01-13T00:03:29.730Z,25.05
2019-01-13T00:05:58.049Z,29.60
2019-01-13T00:08:26.366Z,26.87
2019-01-13T00:10:54.658Z,25.67
2019-01-13T00:13:22.960Z,21.60
2019-01-13T00:15:51.272Z,25.20
2019-01-13T00:18:19.591Z,26.48
2019-01-13T00:20:47.882Z,26.65
2019-01-13T00:23:16.218Z,27.27
2019-01-13T00:25:44.506Z,26.42
2019-01-13T00:28:12.812Z,25.97
2019-01-13T00:30:41.108Z,24.77
2019-01-13T00:33:09.409Z,29.77
2019-01-13T00:35:38.015Z,23.70
2019-01-13T00:38:06.301Z,27.62
2019-01-13T00:40:34.619Z,26.70
2019-01-13T00:43:03.242Z,35.15
2019-01-13T00:45:31.573Z,25.08
2019-01-13T00:47:59.878Z,27.15
2019-01-13T00:50:28.201Z,28.53
2019-01-13T00:52:56.753Z,29.00
2019-01-13T00:55:25.057Z,29.45
2019-01-13T00:57:53.417Z,28.40
2019-01-13T01:01:01.875Z,26.30
2019-01-13T01:03:30.160Z,30.95
2019-01-13T01:05:58.470Z,26.75
2019-01-13T01:09:06.814Z,29.37
2019-01-13T01:11:35.476Z,33.60
2019-01-13T01:14:43.814Z,35.15
2019-01-13T01:17:31.583Z,31.05
2019-01-13T01:19:59.880Z,30.10
2019-01-13T01:22:28.191Z,27.77
2019-01-13T01:24:56.491Z,26.00
2019-01-13T01:27:24.782Z,35.38
2019-01-13T01:29:53.110Z,31.97
2019-01-13T01:32:21.405Z,32.23
2019-01-13T01:34:49.726Z,25.40
2019-01-13T01:37:18.027Z,27.13
2019-01-13T01:39:46.630Z,36.17
2019-01-13T01:42:34.121Z,28.05
2019-01-13T01:45:02.445Z,32.53
2019-01-13T01:47:30.747Z,32.70
2019-01-13T01:49:59.047Z,28.10
2019-01-13T01:52:27.668Z,35.03
2019-01-13T01:54:55.969Z,32.48
2019-01-13T01:57:24.293Z,36.83
2019-01-13T01:59:52.591Z,33.33
2019-01-13T02:04:56.164Z,36.63
2019-01-13T02:07:24.415Z,33.10
2019-01-13T02:09:52.718Z,38.02
2019-01-13T02:12:21.038Z,32.13
2019-01-13T02:14:49.342Z,36.60
2019-01-13T02:17:17.651Z,31.67
2019-01-13T02:19:45.946Z,30.50
2019-01-13T02:22:14.252Z,37.28
2019-01-13T02:24:42.561Z,34.25
2019-01-13T02:27:10.861Z,32.50
2019-01-13T02:29:39.490Z,40.17
2019-01-13T02:32:07.785Z,37.23
2019-01-13T02:34:36.088Z,40.12
2019-01-13T02:37:23.593Z,37.70
2019-01-13T02:40:11.285Z,32.03
2019-01-13T02:42:58.967Z,35.48
2019-01-13T02:46:07.323Z,37.03
2019-01-13T02:48:35.623Z,36.53
2019-01-13T02:51:03.951Z,34.88
2019-01-13T02:53:32.604Z,33.95
2019-01-13T02:56:00.929Z,33.30
2019-01-13T02:58:29.549Z,40.20
2019-01-13T03:00:57.867Z,35.98
2019-01-13T03:03:38.752Z,35.40
2019-01-13T03:05:56.558Z,33.28
2019-01-13T03:08:24.862Z,37.70
2019-01-13T03:10:53.181Z,38.40
2019-01-13T03:13:40.599Z,36.68
2019-01-13T03:16:08.913Z,34.33
2019-01-13T03:18:37.225Z,40.83
2019-01-13T03:21:05.520Z,34.27
2019-01-13T03:23:33.827Z,41.42
2019-01-13T03:26:02.122Z,43.30
2019-01-13T03:31:23.508Z,44.35
2019-01-13T03:33:51.826Z,39.15
2019-01-13T03:36:20.125Z,41.88
2019-01-13T03:38:48.449Z,39.18
2019-01-13T03:41:16.752Z,38.65
2019-01-13T03:43:45.076Z,33.50
2019-01-13T03:46:32.825Z,32.65
2019-01-13T03:49:01.129Z,32.23
2019-01-13T03:51:48.804Z,34.50
2019-01-13T03:54:17.437Z,35.40
2019-01-13T03:56:45.746Z,38.83
2019-01-13T03:59:14.082Z,34.38
2019-01-13T04:04:29.706Z,36.53
2019-01-13T04:06:57.995Z,35.63
2019-01-13T04:09:26.285Z,37.90
2019-01-13T04:11:54.605Z,36.00
2019-01-13T04:14:22.906Z,37.67
2019-01-13T04:16:51.215Z,36.05
2019-01-13T04:19:19.516Z,33.57
2019-01-13T04:21:47.826Z,32.38
2019-01-13T04:24:16.123Z,31.27
2019-01-13T04:29:17.961Z,28.67
2019-01-13T04:31:46.282Z,28.80
2019-01-13T04:34:14.575Z,29.15
2019-01-13T04:36:43.236Z,26.30
2019-01-13T04:39:11.530Z,27.40
2019-01-13T04:41:39.824Z,25.83
2019-01-13T04:44:08.141Z,26.50
2019-01-13T04:46:38.547Z,24.92
2019-01-13T04:49:06.775Z,27.17
2019-01-13T04:51:35.093Z,27.70
2019-01-13T04:54:03.418Z,25.25
2019-01-13T04:56:31.721Z,26.80
2019-01-13T04:59:00.270Z,27.77
2019-01-13T05:01:34.429Z,28.85
2019-01-13T05:03:58.613Z,28.57
2019-01-13T05:06:26.930Z,29.55
2019-01-13T05:08:55.228Z,27.82
2019-01-13T05:11:23.543Z,23.80
2019-01-13T05:13:51.854Z,26.90
2019-01-13T05:16:20.170Z,28.17
2019-01-13T05:18:48.740Z,26.97
2019-01-13T05:21:17.054Z,25.50
2019-01-13T05:23:45.352Z,26.82
2019-01-13T05:26:13.666Z,27.30
2019-01-13T05:28:41.951Z,27.87
2019-01-13T05:31:10.315Z,31.40
2019-01-13T05:33:38.906Z,28.60
2019-01-13T05:36:07.209Z,29.27
2019-01-13T05:38:35.519Z,30.48
2019-01-13T05:41:23.433Z,27.93
2019-01-13T05:43:51.751Z,32.65
2019-01-13T05:46:20.057Z,30.88
2019-01-13T05:48:48.740Z,34.13
2019-01-13T05:51:17.047Z,36.83
2019-01-13T05:53:45.375Z,35.63
2019-01-13T05:56:13.672Z,37.17
2019-01-13T05:58:41.991Z,37.08
2019-01-13T06:01:29.729Z,34.47
2019-01-13T06:03:58.363Z,35.65
2019-01-13T06:06:26.959Z,38.50
2019-01-13T06:08:55.278Z,36.45
2019-01-13T06:11:23.583Z,38.17
2019-01-13T06:14:11.287Z,37.05
2019-01-13T06:16:39.590Z,38.55
2019-01-13T06:19:07.899Z,39.10
2019-01-13T06:24:10.216Z,39.67
2019-01-13T06:26:38.524Z,38.83
2019-01-13T06:29:25.933Z,35.38
2019-01-13T06:31:56.481Z,34.13
2019-01-13T06:34:24.270Z,33.35
2019-01-13T06:37:11.696Z,34.90
2019-01-13T06:39:40.002Z,31.85
2019-01-13T06:42:08.319Z,28.80
2019-01-13T06:44:36.614Z,29.67
2019-01-13T06:47:04.923Z,28.20
2019-01-13T06:52:22.208Z,27.10
2019-01-13T06:54:50.497Z,23.87
2019-01-13T06:57:18.818Z,24.20
2019-01-13T06:59:47.105Z,23.57
2019-01-13T07:02:15.390Z,20.23
2019-01-13T07:04:43.721Z,17.95
2019-01-13T07:07:12.022Z,16.23
2019-01-13T07:09:40.342Z,17.85
2019-01-13T07:12:27.765Z,16.90
2019-01-13T07:17:29.920Z,16.05
2019-01-13T07:19:58.574Z,14.93
2019-01-13T07:22:26.857Z,13.73
2019-01-13T07:24:55.162Z,14.25
2019-01-13T07:27:42.869Z,13.13
2019-01-13T07:30:51.232Z,12.23
2019-01-13T07:36:06.862Z,11.05
2019-01-13T07:38:35.150Z,10.43
2019-01-13T07:41:03.435Z,12.75
2019-01-13T07:43:31.753Z,12.37
2019-01-13T07:46:00.052Z,12.03
2019-01-13T07:48:28.659Z,10.37
2019-01-13T07:51:16.332Z,10.93
2019-01-13T07:53:44.644Z,9.40
2019-01-13T07:56:13.253Z,9.65
2019-01-13T08:01:28.873Z,10.00
2019-01-13T08:03:57.434Z,9.40
2019-01-13T08:06:25.736Z,13.68
2019-01-13T08:11:41.362Z,14.33
2019-01-13T08:14:09.659Z,12.00
2019-01-13T08:16:37.960Z,12.07
2019-01-13T08:19:06.555Z,12.63
2019-01-13T08:21:34.877Z,15.78
2019-01-13T08:24:03.166Z,13.95
2019-01-13T08:26:31.467Z,15.00
2019-01-13T08:28:59.761Z,13.95
2019-01-13T08:31:28.343Z,14.55
2019-01-13T08:33:56.653Z,13.98
2019-01-13T08:37:05.008Z,14.68
2019-01-13T08:39:33.311Z,16.27
2019-01-13T08:42:01.603Z,17.48
2019-01-13T08:44:49.038Z,16.02
2019-01-13T08:47:17.333Z,16.70
2019-01-13T08:49:45.644Z,17.30
2019-01-13T08:52:13.937Z,16.52
2019-01-13T08:54:42.246Z,20.27
2019-01-13T08:57:10.536Z,18.60
2019-01-13T08:59:38.840Z,16.42
2019-01-13T09:02:07.139Z,17.30
2019-01-13T09:04:54.581Z,20.05
2019-01-13T09:07:23.182Z,17.77
2019-01-13T09:10:10.875Z,20.53
2019-01-13T09:12:39.166Z,20.45
2019-01-13T09:15:47.524Z,18.35
2019-01-13T09:18:15.880Z,16.77
2019-01-13T09:20:44.201Z,16.80
2019-01-13T09:23:31.947Z,14.50
2019-01-13T09:26:00.269Z,19.70
2019-01-13T09:28:28.577Z,15.77
2019-01-13T09:30:56.895Z,15.73
2019-01-13T09:33:44.570Z,16.95
2019-01-13T09:36:12.892Z,17.27
2019-01-13T09:38:41.185Z,17.80
2019-01-13T09:41:09.482Z,15.15
2019-01-13T09:43:37.794Z,12.63
2019-01-13T09:46:06.100Z,15.00
2019-01-13T09:48:34.408Z,15.78
2019-01-13T09:51:02.976Z,10.58
2019-01-13T09:53:31.302Z,11.88
2019-01-13T09:55:59.640Z,10.20
2019-01-13T09:58:47.147Z,13.22
2019-01-13T10:01:34.824Z,16.40
2019-01-13T10:04:03.144Z,15.85
2019-01-13T10:06:31.448Z,11.30
2019-01-13T10:08:59.750Z,13.30
2019-01-13T10:17:10.245Z,16.02
2019-01-13T10:19:38.566Z,17.07
2019-01-13T10:22:06.866Z,14.10
2019-01-13T10:24:35.154Z,14.05
2019-01-13T10:29:37.072Z,16.40
2019-01-13T10:32:24.755Z,17.75
2019-01-13T10:34:53.049Z,17.02
2019-01-13T10:37:21.362Z,17.50
2019-01-13T10:39:49.674Z,20.17
2019-01-13T10:42:18.282Z,20.23
2019-01-13T10:45:05.954Z,18.35
2019-01-13T10:47:34.282Z,20.23
2019-01-13T10:50:21.944Z,18.62
2019-01-13T10:55:45.324Z,18.73
2019-01-13T10:58:13.629Z,17.42
2019-01-13T11:00:41.922Z,16.60
2019-01-13T11:03:10.230Z,20.75
2019-01-13T11:08:43.369Z,19.07
2019-01-13T11:11:31.032Z,14.45
2019-01-13T11:13:59.651Z,14.45
2019-01-13T11:16:28.248Z,13.05
2019-01-13T11:19:15.899Z,16.67
2019-01-13T11:22:03.723Z,19.70
2019-01-13T11:24:32.380Z,15.20
2019-01-13T11:27:20.288Z,14.85
2019-01-13T11:30:07.989Z,12.75
2019-01-13T11:32:36.533Z,12.20
2019-01-13T11:35:44.903Z,13.32
2019-01-13T11:38:13.540Z,13.50
2019-01-13T11:41:01.217Z,11.50
2019-01-13T11:43:29.522Z,14.30
2019-01-13T11:45:57.830Z,10.88
2019-01-13T11:48:26.150Z,10.95
2019-01-13T11:50:54.450Z,11.10
2019-01-13T11:53:22.773Z,10.75
2019-01-13T11:56:03.226Z,13.18
2019-01-13T11:58:31.538Z,12.33
2019-01-13T12:00:59.845Z,11.45
2019-01-13T12:03:47.973Z,14.18
2019-01-13T12:06:16.591Z,9.83
2019-01-13T12:09:04.295Z,15.50
2019-01-13T12:11:32.583Z,12.00
2019-01-13T12:14:01.189Z,10.20
2019-01-13T12:16:48.865Z,13.85
2019-01-13T12:19:17.151Z,12.58
2019-01-13T12:21:45.785Z,10.93
2019-01-13T12:24:14.360Z,10.55
2019-01-13T12:26:42.946Z,8.43
2019-01-13T12:29:11.236Z,12.05
2019-01-13T12:31:39.532Z,9.23
2019-01-13T12:34:08.191Z,15.05
2019-01-13T12:36:55.885Z,11.47
2019-01-13T12:39:24.496Z,10.60
2019-01-13T12:42:12.196Z,11.97
2019-01-13T12:47:27.831Z,13.60
2019-01-13T12:50:15.496Z,14.30
2019-01-13T12:53:03.202Z,11.25
2019-01-13T12:55:50.623Z,15.58
2019-01-13T12:58:18.932Z,6.97
2019-01-13T13:00:47.485Z,11.10
2019-01-13T13:03:16.170Z,10.53
2019-01-13T13:08:32.069Z,10.87
2019-01-13T13:11:00.369Z,10.78
2019-01-13T13:13:28.933Z,10.90
2019-01-13T13:15:57.245Z,9.40
2019-01-13T13:18:25.536Z,13.43
2019-01-13T13:20:53.838Z,11.12
2019-01-13T13:23:22.141Z,9.88
2019-01-13T13:25:50.443Z,10.30
2019-01-13T13:28:19.177Z,10.20
2019-01-13T13:33:38.925Z,9.18
2019-01-13T13:36:46.191Z,13.28
2019-01-13T13:41:48.000Z,10.03
2019-01-13T13:44:16.305Z,10.85
2019-01-13T13:46:44.602Z,9.90
2019-01-13T13:49:12.906Z,11.95
2019-01-13T13:51:41.197Z,7.15
2019-01-13T13:54:28.880Z,8.70
2019-01-13T13:56:57.177Z,12.60
2019-01-13T14:01:58.922Z,10.25
2019-01-13T14:04:27.225Z,13.00
2019-01-13T14:07:15.116Z,10.00
2019-01-13T14:09:43.476Z,10.15
2019-01-13T14:12:12.038Z,12.98
2019-01-13T14:17:14.594Z,12.37
2019-01-13T14:19:43.149Z,12.55
2019-01-13T14:22:11.449Z,12.65
2019-01-13T14:27:46.418Z,11.80
2019-01-13T14:30:55.008Z,11.38
2019-01-13T14:33:23.640Z,11.27
2019-01-13T14:35:51.927Z,9.68
2019-01-13T14:40:54.017Z,11.10
2019-01-13T14:43:22.321Z,8.78
2019-01-13T14:45:50.616Z,9.80
2019-01-13T14:53:27.152Z,10.15
2019-01-13T14:55:56.271Z,8.83
2019-01-13T14:58:26.066Z,11.08
2019-01-13T15:01:13.497Z,10.78
2019-01-13T15:03:41.814Z,7.78
2019-01-13T15:06:10.105Z,8.05
2019-01-13T15:08:38.427Z,10.78
2019-01-13T15:11:06.712Z,7.90
2019-01-13T15:16:22.325Z,7.37
2019-01-13T15:19:09.727Z,9.20
2019-01-13T15:21:38.035Z,6.55
2019-01-13T15:24:06.334Z,7.08
2019-01-13T15:26:34.950Z,7.50
2019-01-13T15:29:03.252Z,10.18
2019-01-13T15:34:25.085Z,8.73
2019-01-13T15:37:12.869Z,9.48
2019-01-13T15:39:41.408Z,9.70
2019-01-13T15:42:09.736Z,11.45
2019-01-13T15:44:38.041Z,13.25
2019-01-13T15:47:06.338Z,12.17
2019-01-13T15:52:41.599Z,12.80
2019-01-13T15:55:09.973Z,17.37
2019-01-13T15:57:38.294Z,24.35
2019-01-13T16:00:43.740Z,23.30
2019-01-13T16:06:05.702Z,17.90
2019-01-13T16:08:53.407Z,21.42
2019-01-13T16:11:21.710Z,19.40
2019-01-13T16:13:50.016Z,16.40
2019-01-13T16:16:37.687Z,17.02
2019-01-13T16:19:05.992Z,13.80
2019-01-13T16:21:34.290Z,16.10
2019-01-13T16:24:21.933Z,21.87
2019-01-13T16:26:50.229Z,20.57
2019-01-13T16:29:18.556Z,21.70
2019-01-13T16:31:46.849Z,25.75
2019-01-13T16:34:21.414Z,21.50
2019-01-13T16:36:45.477Z,20.20
2019-01-13T16:39:33.168Z,20.20
2019-01-13T16:42:01.447Z,22.45
2019-01-13T16:44:29.738Z,21.25
2019-01-13T16:46:58.057Z,21.80
2019-01-13T16:49:26.361Z,18.30
2019-01-13T16:51:54.668Z,18.50
2019-01-13T16:54:22.946Z,20.87
2019-01-13T16:56:51.257Z,18.52
2019-01-13T16:59:19.800Z,17.77
2019-01-13T17:01:48.120Z,16.60
2019-01-13T17:07:05.987Z,16.10
2019-01-13T17:09:34.345Z,21.23
2019-01-13T17:12:02.662Z,18.90
2019-01-13T17:14:30.940Z,22.80
2019-01-13T17:19:46.552Z,21.95
2019-01-13T17:22:15.167Z,22.63
2019-01-13T17:25:03.081Z,20.62
2019-01-13T17:27:31.682Z,19.55
2019-01-13T17:30:00.002Z,20.00
2019-01-13T17:32:47.658Z,17.05
2019-01-13T17:35:56.013Z,17.10
2019-01-13T17:38:24.323Z,10.72
2019-01-13T17:40:52.609Z,11.85
2019-01-13T17:43:20.911Z,10.05
2019-01-13T17:45:49.520Z,6.65
2019-01-13T17:48:17.813Z,7.25
2019-01-13T17:50:46.112Z,7.53
2019-01-13T17:53:14.410Z,5.75
2019-01-13T17:55:42.721Z,8.23
2019-01-13T17:58:11.006Z,5.45
2019-01-13T18:01:19.359Z,4.50
2019-01-13T18:04:07.023Z,7.25
2019-01-13T18:06:35.341Z,8.25
2019-01-13T18:12:11.705Z,9.30
2019-01-13T18:14:59.112Z,10.68
2019-01-13T18:17:27.408Z,8.07
2019-01-13T18:19:55.707Z,10.43
2019-01-13T18:22:43.352Z,11.83
2019-01-13T18:25:51.678Z,15.00
2019-01-13T18:28:39.434Z,10.67
2019-01-13T18:33:55.058Z,10.20
2019-01-13T18:36:42.678Z,7.75
2019-01-13T18:39:30.383Z,13.15
2019-01-13T18:41:58.676Z,10.30
2019-01-13T18:47:20.591Z,13.10
2019-01-13T18:52:22.536Z,12.50
2019-01-13T18:54:50.847Z,12.43
2019-01-13T18:57:19.141Z,11.75
2019-01-13T18:59:47.434Z,11.40
2019-01-13T19:02:15.749Z,13.55
2019-01-13T19:04:44.049Z,11.73
2019-01-13T19:07:12.740Z,10.60
2019-01-13T19:09:41.028Z,12.18
2019-01-13T19:12:09.341Z,14.58
2019-01-13T19:17:25.272Z,15.38
2019-01-13T19:19:53.557Z,11.65
2019-01-13T19:22:21.854Z,16.97
2019-01-13T19:27:23.723Z,15.68
2019-01-13T19:29:52.025Z,13.80
2019-01-13T19:32:20.656Z,15.50
2019-01-13T19:34:48.956Z,13.62
2019-01-13T19:37:17.274Z,22.02
2019-01-13T19:39:45.589Z,17.07
2019-01-13T19:42:33.257Z,16.33
2019-01-13T19:45:01.913Z,20.82
2019-01-13T19:47:30.207Z,20.17
2019-01-13T19:49:58.514Z,17.87
2019-01-13T19:52:26.796Z,15.40
2019-01-13T19:54:55.091Z,22.25
2019-01-13T19:57:23.424Z,16.65
2019-01-13T19:59:51.720Z,13.60
2019-01-13T20:02:20.025Z,17.03
2019-01-13T20:04:48.326Z,17.70
2019-01-13T20:07:36.021Z,14.98
2019-01-13T20:10:44.357Z,19.00
2019-01-13T20:16:45.522Z,15.45
2019-01-13T20:19:13.843Z,13.30
2019-01-13T20:21:42.143Z,16.40
2019-01-13T20:24:10.445Z,12.63
2019-01-13T20:26:38.757Z,15.30
2019-01-13T20:29:07.064Z,17.07
2019-01-13T20:31:35.396Z,14.20
2019-01-13T20:34:03.685Z,16.07
2019-01-13T20:39:45.727Z,15.55
2019-01-13T20:42:33.406Z,15.17
2019-01-13T20:45:20.835Z,21.57
2019-01-13T20:47:49.152Z,16.20
2019-01-13T20:50:36.891Z,17.57
2019-01-13T20:53:45.241Z,14.00
2019-01-13T20:56:33.257Z,23.55
2019-01-13T21:01:55.306Z,17.35
2019-01-13T21:04:43.075Z,20.17
2019-01-13T21:10:44.903Z,17.80
2019-01-13T21:13:13.718Z,14.50
2019-01-13T21:15:42.014Z,19.77
2019-01-13T21:18:29.448Z,19.77
2019-01-13T21:20:57.746Z,19.65
2019-01-13T21:23:26.064Z,15.65
2019-01-13T21:25:54.343Z,12.20
2019-01-13T21:31:11.953Z,16.35
2019-01-13T21:33:40.245Z,18.53
2019-01-13T21:36:08.541Z,18.70
2019-01-13T21:41:24.169Z,15.85
2019-01-13T21:44:12.075Z,17.37
2019-01-13T21:46:59.510Z,19.00
2019-01-13T21:49:27.806Z,14.58
2019-01-13T21:54:29.927Z,22.93
2019-01-13T21:56:58.244Z,17.70
2019-01-13T21:59:26.539Z,15.65
2019-01-13T22:01:55.154Z,22.50
2019-01-13T22:04:23.440Z,12.82
2019-01-13T22:06:51.729Z,23.75
2019-01-13T22:09:39.650Z,14.85
2019-01-13T22:12:07.932Z,23.05
2019-01-13T22:14:36.525Z,17.37
2019-01-13T22:17:44.848Z,17.45
2019-01-13T22:20:32.512Z,14.47
2019-01-13T22:23:19.957Z,23.47
2019-01-13T22:25:48.265Z,22.35
2019-01-13T22:31:03.891Z,19.17
2019-01-13T22:33:51.809Z,18.23
2019-01-13T22:36:20.125Z,15.83
2019-01-13T22:38:48.426Z,15.63
2019-01-13T22:41:16.727Z,15.83
2019-01-13T22:43:45.012Z,17.15
2019-01-13T22:46:13.318Z,17.87
2019-01-13T22:48:41.869Z,14.98
2019-01-13T22:51:10.178Z,14.18
2019-01-13T22:53:38.471Z,20.82
2019-01-13T22:56:06.780Z,15.43
2019-01-13T22:58:35.064Z,16.87
2019-01-13T23:01:43.671Z,20.90
2019-01-13T23:07:00.919Z,13.48
2019-01-13T23:09:48.964Z,15.75
2019-01-13T23:12:24.241Z,12.63
2019-01-13T23:14:52.537Z,18.80
2019-01-13T23:17:40.224Z,15.90
2019-01-13T23:20:48.542Z,14.40
2019-01-13T23:23:35.966Z,14.35
2019-01-13T23:26:44.310Z,12.10
2019-01-13T23:29:12.608Z,17.10
2019-01-13T23:31:40.891Z,17.20
2019-01-13T23:34:09.175Z,13.50
2019-01-13T23:36:37.782Z,16.62
2019-01-13T23:39:46.115Z,18.20
2019-01-13T23:42:33.787Z,16.37
2019-01-13T23:45:02.089Z,17.42
2019-01-13T23:47:30.393Z,15.60
2019-01-13T23:49:58.672Z,18.90
2019-01-13T23:52:26.989Z,18.90
2019-01-13T23:54:55.619Z,15.43
2019-01-13T23:57:23.923Z,17.48
2019-01-13T23:59:52.200Z,13.28
